createdAt,value
2023-05-20T00:01:43.116Z,14.40
2023-05-20T00:04:10.102Z,14.32
2023-05-20T00:06:36.853Z,14.36
2023-05-20T00:09:03.797Z,14.42
2023-05-20T00:11:31.452Z,14.39
2023-05-20T00:13:58.225Z,14.37
2023-05-20T00:16:24.928Z,14.43
2023-05-20T00:18:51.596Z,14.36
2023-05-20T00:21:18.277Z,14.33
2023-05-20T00:23:44.931Z,14.35
2023-05-20T00:26:11.597Z,14.21
2023-05-20T00:28:38.275Z,14.19
2023-05-20T00:31:05.160Z,14.18
2023-05-20T00:33:31.811Z,14.14
2023-05-20T00:35:58.477Z,14.18
2023-05-20T00:38:25.108Z,14.18
2023-05-20T00:40:51.805Z,14.14
2023-05-20T00:43:20.515Z,14.13
2023-05-20T00:45:47.958Z,14.10
2023-05-20T00:48:14.889Z,14.05
2023-05-20T00:50:41.574Z,13.99
2023-05-20T00:53:09.086Z,13.92
2023-05-20T00:55:36.209Z,13.83
2023-05-20T00:58:03.069Z,13.79
2023-05-20T01:00:29.745Z,13.70
2023-05-20T01:02:57.254Z,13.66
2023-05-20T01:05:24.165Z,13.64
2023-05-20T01:07:51.263Z,13.70
2023-05-20T01:10:18.336Z,13.60
2023-05-20T01:12:56.299Z,13.56
2023-05-20T01:15:26.804Z,13.57
2023-05-20T01:18:01.889Z,13.65
2023-05-20T01:20:32.718Z,13.54
2023-05-20T01:22:59.616Z,13.48
2023-05-20T01:25:26.572Z,13.35
2023-05-20T01:27:55.308Z,13.34
2023-05-20T01:30:22.428Z,13.34
2023-05-20T01:32:52.661Z,13.23
2023-05-20T01:35:23.086Z,13.12
2023-05-20T01:37:52.389Z,13.03
2023-05-20T01:40:19.368Z,12.86
2023-05-20T01:42:53.047Z,12.80
2023-05-20T01:45:20.316Z,12.72
2023-05-20T01:47:47.405Z,12.51
2023-05-20T01:50:14.158Z,12.65
2023-05-20T01:52:40.891Z,12.53
2023-05-20T01:55:07.925Z,12.65
2023-05-20T01:57:34.609Z,12.63
2023-05-20T02:00:01.381Z,12.62
2023-05-20T02:02:28.185Z,12.58
2023-05-20T02:04:55.074Z,12.50
2023-05-20T02:07:21.820Z,12.28
2023-05-20T02:09:48.476Z,12.21
2023-05-20T02:12:18.073Z,12.33
2023-05-20T02:14:49.396Z,12.39
2023-05-20T02:17:17.368Z,12.42
2023-05-20T02:19:47.465Z,12.40
2023-05-20T02:22:14.907Z,12.38
2023-05-20T02:24:43.293Z,12.37
2023-05-20T02:27:10.144Z,12.30
2023-05-20T02:29:37.135Z,12.34
2023-05-20T02:32:03.978Z,12.43
2023-05-20T02:34:32.180Z,12.46
2023-05-20T02:36:58.944Z,12.38
2023-05-20T02:39:25.742Z,12.20
2023-05-20T02:41:52.402Z,12.15
2023-05-20T02:44:19.061Z,11.98
2023-05-20T02:46:45.748Z,11.82
2023-05-20T02:49:12.450Z,11.87
2023-05-20T02:51:40.422Z,11.78
2023-05-20T02:54:07.052Z,11.86
2023-05-20T02:56:34.442Z,11.92
2023-05-20T02:59:01.130Z,12.07
2023-05-20T03:01:29.217Z,12.04
2023-05-20T03:03:56.026Z,12.06
2023-05-20T03:06:22.892Z,12.15
2023-05-20T03:08:49.586Z,12.15
2023-05-20T03:11:16.305Z,12.18
2023-05-20T03:13:43.003Z,12.16
2023-05-20T03:16:09.829Z,12.20
2023-05-20T03:18:36.515Z,12.06
2023-05-20T03:21:03.175Z,12.04
2023-05-20T03:23:29.815Z,11.95
2023-05-20T03:25:56.536Z,11.78
2023-05-20T03:28:23.177Z,11.90
2023-05-20T03:30:49.800Z,11.98
2023-05-20T03:33:16.833Z,11.99
2023-05-20T03:35:43.495Z,12.01
2023-05-20T03:38:10.179Z,12.11
2023-05-20T03:40:36.968Z,12.17
2023-05-20T03:43:03.685Z,12.21
2023-05-20T03:45:30.376Z,12.17
2023-05-20T03:47:57.116Z,12.20
2023-05-20T03:50:23.811Z,12.17
2023-05-20T03:52:50.540Z,12.13
2023-05-20T03:55:17.222Z,12.10
2023-05-20T03:57:43.920Z,12.22
2023-05-20T04:00:12.257Z,12.22
2023-05-20T04:02:39.104Z,12.08
2023-05-20T04:05:08.740Z,12.19
2023-05-20T04:07:36.883Z,12.28
2023-05-20T04:10:05.142Z,12.20
2023-05-20T04:12:32.610Z,12.14
2023-05-20T04:15:02.474Z,12.04
2023-05-20T04:17:30.328Z,12.03
2023-05-20T04:20:00.108Z,11.86
2023-05-20T04:22:27.500Z,11.87
2023-05-20T04:24:54.385Z,11.96
2023-05-20T04:27:21.742Z,12.00
2023-05-20T04:29:48.567Z,12.10
2023-05-20T04:32:18.916Z,12.19
2023-05-20T04:34:48.868Z,12.34
2023-05-20T04:37:16.194Z,12.38
2023-05-20T04:39:43.762Z,12.51
2023-05-20T04:42:10.859Z,12.49
2023-05-20T04:44:38.096Z,12.70
2023-05-20T04:47:04.835Z,12.72
2023-05-20T04:49:31.622Z,12.88
2023-05-20T04:51:58.733Z,12.78
2023-05-20T04:54:25.535Z,12.85
2023-05-20T04:56:52.309Z,12.85
2023-05-20T04:59:19.012Z,12.71
2023-05-20T05:01:45.647Z,12.45
2023-05-20T05:04:12.367Z,12.51
2023-05-20T05:06:39.063Z,12.50
2023-05-20T05:09:05.807Z,12.63
2023-05-20T05:11:32.580Z,12.65
2023-05-20T05:13:59.259Z,12.83
2023-05-20T05:16:26.090Z,12.90
2023-05-20T05:18:52.974Z,12.95
2023-05-20T05:21:19.987Z,13.06
2023-05-20T05:23:46.640Z,13.09
2023-05-20T05:26:13.243Z,13.18
2023-05-20T05:28:42.314Z,13.18
2023-05-20T05:31:09.439Z,13.26
2023-05-20T05:33:36.179Z,13.40
2023-05-20T05:36:03.085Z,13.67
2023-05-20T05:38:29.767Z,13.90
2023-05-20T05:40:56.513Z,14.24
2023-05-20T05:43:23.241Z,14.60
2023-05-20T05:45:49.869Z,15.17
2023-05-20T05:48:16.583Z,16.05
2023-05-20T05:50:46.913Z,16.87
2023-05-20T05:53:13.573Z,17.34
2023-05-20T05:55:40.359Z,17.70
2023-05-20T05:58:07.101Z,18.02
2023-05-20T06:00:33.927Z,18.60
2023-05-20T06:03:00.928Z,19.01
2023-05-20T06:05:29.325Z,19.67
2023-05-20T06:07:58.101Z,19.43
2023-05-20T06:10:24.904Z,19.99
2023-05-20T06:12:51.515Z,20.75
2023-05-20T06:15:18.267Z,20.70
2023-05-20T06:17:45.009Z,20.94
2023-05-20T06:20:12.171Z,21.35
2023-05-20T06:22:38.726Z,21.53
2023-05-20T06:25:06.398Z,21.18
2023-05-20T06:27:33.438Z,21.05
2023-05-20T06:30:00.336Z,21.07
2023-05-20T06:32:27.801Z,21.30
2023-05-20T06:34:54.471Z,21.43
2023-05-20T06:37:24.496Z,21.73
2023-05-20T06:39:54.096Z,21.66
2023-05-20T06:42:21.632Z,21.76
2023-05-20T06:44:48.386Z,21.54
2023-05-20T06:47:16.840Z,21.94
2023-05-20T06:49:47.406Z,22.11
2023-05-20T06:52:14.625Z,22.62
2023-05-20T06:54:41.862Z,22.60
2023-05-20T06:57:09.107Z,22.74
2023-05-20T06:59:38.986Z,23.02
2023-05-20T07:02:06.038Z,23.52
2023-05-20T07:04:32.665Z,23.87
2023-05-20T07:06:59.368Z,23.78
2023-05-20T07:09:26.075Z,23.43
2023-05-20T07:11:52.691Z,23.69
2023-05-20T07:14:33.336Z,23.76
2023-05-20T07:16:59.981Z,23.69
2023-05-20T07:19:27.913Z,23.93
2023-05-20T07:21:54.626Z,23.61
2023-05-20T07:24:21.255Z,23.46
2023-05-20T07:26:47.980Z,23.31
2023-05-20T07:29:14.606Z,22.88
2023-05-20T07:31:41.295Z,22.77
2023-05-20T07:34:08.005Z,23.20
2023-05-20T07:36:34.711Z,23.16
2023-05-20T07:39:03.474Z,23.52
2023-05-20T07:41:32.077Z,23.63
2023-05-20T07:43:58.791Z,23.48
2023-05-20T07:46:25.615Z,23.42
2023-05-20T07:48:52.366Z,23.69
2023-05-20T07:51:19.279Z,24.02
2023-05-20T07:53:45.962Z,24.24
2023-05-20T07:56:12.620Z,24.47
2023-05-20T07:58:41.832Z,24.44
2023-05-20T08:01:09.499Z,24.42
2023-05-20T08:03:37.034Z,24.09
2023-05-20T08:06:04.053Z,24.26
2023-05-20T08:08:30.897Z,24.20
2023-05-20T08:10:57.630Z,24.03
2023-05-20T08:13:25.541Z,23.92
2023-05-20T08:15:54.746Z,24.09
2023-05-20T08:18:21.468Z,24.20
2023-05-20T08:20:48.231Z,24.36
2023-05-20T08:23:15.290Z,24.24
2023-05-20T08:25:41.902Z,24.41
2023-05-20T08:28:08.690Z,24.39
2023-05-20T08:30:35.372Z,24.02
2023-05-20T08:33:02.547Z,24.16
2023-05-20T08:35:29.340Z,24.35
2023-05-20T08:37:55.905Z,24.37
2023-05-20T08:40:22.756Z,24.44
2023-05-20T08:42:53.015Z,24.38
2023-05-20T08:45:27.783Z,24.33
2023-05-20T08:47:55.052Z,24.38
2023-05-20T08:50:22.259Z,24.40
2023-05-20T08:52:51.834Z,24.51
2023-05-20T08:55:27.041Z,24.62
2023-05-20T08:57:55.095Z,24.71
2023-05-20T09:00:27.337Z,24.61
2023-05-20T09:02:54.932Z,24.65
2023-05-20T09:05:22.901Z,24.57
2023-05-20T09:07:49.809Z,24.76
2023-05-20T09:10:16.834Z,24.97
2023-05-20T09:12:43.813Z,24.99
2023-05-20T09:15:10.777Z,25.11
2023-05-20T09:17:38.567Z,25.25
2023-05-20T09:20:10.934Z,25.47
2023-05-20T09:22:39.481Z,25.27
2023-05-20T09:25:06.770Z,25.39
2023-05-20T09:27:34.144Z,25.50
2023-05-20T09:30:01.139Z,25.43
2023-05-20T09:32:29.107Z,25.51
2023-05-20T09:34:55.918Z,25.66
2023-05-20T09:37:24.622Z,25.80
2023-05-20T09:39:58.175Z,25.78
2023-05-20T09:42:29.091Z,25.86
2023-05-20T09:44:58.980Z,26.02
2023-05-20T09:47:27.155Z,26.22
2023-05-20T09:49:54.133Z,26.29
2023-05-20T09:52:21.612Z,26.31
2023-05-20T09:54:49.769Z,26.37
2023-05-20T09:57:16.491Z,26.31
2023-05-20T09:59:44.377Z,26.38
2023-05-20T10:02:11.208Z,26.38
2023-05-20T10:04:43.320Z,26.60
2023-05-20T10:07:20.917Z,26.50
2023-05-20T10:10:23.808Z,26.68
2023-05-20T10:13:04.667Z,26.79
2023-05-20T10:15:45.973Z,26.86
2023-05-20T10:18:31.080Z,26.93
2023-05-20T10:20:57.782Z,26.94
2023-05-20T10:23:31.619Z,26.94
2023-05-20T10:25:58.956Z,26.93
2023-05-20T10:28:38.621Z,26.90
2023-05-20T10:31:24.347Z,26.67
2023-05-20T10:33:53.606Z,26.81
2023-05-20T10:36:27.768Z,26.82
2023-05-20T10:38:56.660Z,26.54
2023-05-20T10:41:28.310Z,26.48
2023-05-20T10:44:05.664Z,26.45
2023-05-20T10:46:46.403Z,26.71
2023-05-20T10:49:23.274Z,26.85
2023-05-20T10:51:52.189Z,26.68
2023-05-20T10:54:18.902Z,26.59
2023-05-20T10:56:53.741Z,26.83
2023-05-20T10:59:21.934Z,26.94
2023-05-20T11:01:49.162Z,26.96
2023-05-20T11:04:17.462Z,26.95
2023-05-20T11:06:54.439Z,26.96
2023-05-20T11:25:20.191Z,26.28
2023-05-20T11:27:47.187Z,26.09
2023-05-20T11:30:18.625Z,25.88
2023-05-20T11:32:56.490Z,25.16
2023-05-20T11:35:24.380Z,24.81
2023-05-20T11:38:05.010Z,24.38
2023-05-20T11:40:42.526Z,23.97
2023-05-20T11:43:14.800Z,23.98
2023-05-20T11:45:43.468Z,23.94
2023-05-20T11:48:12.132Z,23.78
2023-05-20T11:50:41.083Z,23.56
2023-05-20T11:53:09.950Z,23.44
2023-05-20T11:55:48.973Z,23.34
2023-05-20T11:58:20.265Z,23.21
2023-05-20T12:00:51.708Z,23.09
2023-05-20T12:03:22.415Z,23.15
2023-05-20T12:05:51.308Z,23.19
2023-05-20T12:08:18.086Z,23.19
2023-05-20T12:10:47.698Z,23.19
2023-05-20T12:13:14.603Z,22.97
2023-05-20T12:15:41.365Z,23.02
2023-05-20T12:18:08.418Z,23.03
2023-05-20T12:20:36.596Z,23.19
2023-05-20T12:23:04.191Z,23.39
2023-05-20T12:25:30.848Z,23.51
2023-05-20T12:27:59.600Z,23.64
2023-05-20T12:30:26.351Z,23.76
2023-05-20T12:32:53.377Z,23.92
2023-05-20T12:35:41.397Z,24.03
2023-05-20T12:38:08.703Z,24.09
2023-05-20T12:40:36.630Z,24.18
2023-05-20T12:43:04.837Z,24.00
2023-05-20T12:45:31.753Z,23.90
2023-05-20T12:47:58.986Z,23.94
2023-05-20T12:50:26.123Z,23.79
2023-05-20T12:52:53.256Z,23.66
2023-05-20T12:55:20.011Z,23.77
2023-05-20T12:57:47.634Z,23.83
2023-05-20T13:00:15.123Z,23.86
2023-05-20T13:02:42.994Z,23.97
2023-05-20T13:05:10.682Z,24.12
2023-05-20T13:07:37.893Z,24.31
2023-05-20T13:10:04.816Z,24.64
2023-05-20T13:12:31.599Z,24.89
2023-05-20T13:14:58.364Z,25.06
2023-05-20T13:17:25.092Z,25.16
2023-05-20T13:19:51.996Z,25.32
2023-05-20T13:22:18.728Z,25.40
2023-05-20T13:24:45.427Z,25.49
2023-05-20T13:27:12.153Z,25.47
2023-05-20T13:29:38.846Z,25.49
2023-05-20T13:32:05.862Z,25.39
2023-05-20T13:34:32.567Z,25.34
2023-05-20T13:36:59.302Z,25.20
2023-05-20T13:39:25.936Z,25.12
2023-05-20T13:41:55.048Z,25.03
2023-05-20T13:44:21.906Z,25.03
2023-05-20T13:46:48.628Z,25.10
2023-05-20T13:49:15.679Z,25.08
2023-05-20T13:51:42.392Z,25.11
2023-05-20T13:54:09.026Z,25.10
2023-05-20T13:56:35.833Z,25.08
2023-05-20T13:59:02.498Z,25.18
2023-05-20T14:01:30.964Z,25.24
2023-05-20T14:03:57.701Z,25.26
2023-05-20T14:06:24.880Z,25.20
2023-05-20T14:08:54.501Z,25.00
2023-05-20T14:11:21.901Z,24.72
2023-05-20T14:13:48.673Z,24.51
2023-05-20T14:16:15.864Z,24.44
2023-05-20T14:18:42.686Z,24.15
2023-05-20T14:21:09.284Z,23.90
2023-05-20T14:23:36.020Z,23.73
2023-05-20T14:26:02.705Z,23.59
2023-05-20T14:28:29.318Z,23.58
2023-05-20T14:30:55.974Z,23.49
2023-05-20T14:33:22.664Z,23.36
2023-05-20T14:35:49.297Z,23.19
2023-05-20T14:38:16.933Z,23.15
2023-05-20T14:40:43.755Z,23.16
2023-05-20T14:43:10.681Z,23.16
2023-05-20T14:45:40.491Z,23.32
2023-05-20T14:48:07.221Z,23.54
2023-05-20T14:50:34.219Z,23.74
2023-05-20T14:53:00.965Z,23.85
2023-05-20T14:55:27.617Z,24.02
2023-05-20T14:57:54.357Z,24.20
2023-05-20T15:00:21.132Z,24.30
2023-05-20T15:02:47.895Z,24.31
2023-05-20T15:05:14.867Z,24.24
2023-05-20T15:07:41.987Z,24.14
2023-05-20T15:10:08.938Z,23.91
2023-05-20T15:12:35.570Z,23.77
2023-05-20T15:15:02.472Z,23.63
2023-05-20T15:17:29.162Z,23.53
2023-05-20T15:19:55.880Z,23.50
2023-05-20T15:22:22.722Z,23.49
2023-05-20T15:24:49.486Z,23.37
2023-05-20T15:27:16.353Z,23.24
2023-05-20T15:29:43.192Z,23.09
2023-05-20T15:32:10.037Z,23.02
2023-05-20T15:34:36.766Z,22.97
2023-05-20T15:37:03.538Z,22.84
2023-05-20T15:39:30.211Z,22.67
2023-05-20T15:41:59.459Z,22.50
2023-05-20T15:44:26.587Z,22.33
2023-05-20T15:46:53.150Z,22.21
2023-05-20T15:49:19.820Z,21.91
2023-05-20T15:51:55.775Z,21.74
2023-05-20T15:54:29.436Z,21.64
2023-05-20T15:56:56.337Z,21.55
2023-05-20T15:59:23.023Z,21.40
2023-05-20T16:01:49.744Z,21.31
2023-05-20T16:04:16.574Z,21.30
2023-05-20T16:06:43.488Z,21.30
2023-05-20T16:09:10.210Z,21.22
2023-05-20T16:11:36.885Z,21.21
2023-05-20T16:14:03.536Z,21.25
2023-05-20T16:16:30.303Z,21.24
2023-05-20T16:18:57.145Z,21.30
2023-05-20T16:21:25.096Z,21.13
2023-05-20T16:23:52.935Z,20.93
2023-05-20T16:26:19.731Z,20.99
2023-05-20T16:28:47.190Z,21.00
2023-05-20T16:31:13.987Z,21.00
2023-05-20T16:33:41.003Z,21.05
2023-05-20T16:36:07.850Z,21.00
2023-05-20T16:38:34.928Z,20.99
2023-05-20T16:41:01.986Z,21.01
2023-05-20T16:43:28.720Z,21.02
2023-05-20T16:45:55.547Z,21.05
2023-05-20T16:48:22.378Z,20.84
2023-05-20T16:50:49.107Z,20.98
2023-05-20T16:53:16.689Z,20.88
2023-05-20T16:55:43.476Z,20.63
2023-05-20T16:58:10.230Z,20.52
2023-05-20T17:00:36.992Z,20.41
2023-05-20T17:03:04.390Z,20.50
2023-05-20T17:05:31.467Z,20.33
2023-05-20T17:08:00.394Z,20.28
2023-05-20T17:10:28.681Z,20.29
2023-05-20T17:12:55.664Z,20.23
2023-05-20T17:15:23.731Z,20.14
2023-05-20T17:17:51.129Z,20.09
2023-05-20T17:20:17.775Z,20.12
2023-05-20T17:22:44.571Z,20.04
2023-05-20T17:25:11.507Z,19.92
2023-05-20T17:27:38.212Z,19.79
2023-05-20T17:30:05.678Z,19.77
2023-05-20T17:32:32.457Z,19.77
2023-05-20T17:34:59.240Z,19.76
2023-05-20T17:37:26.166Z,19.73
2023-05-20T17:39:52.800Z,19.63
2023-05-20T17:42:19.677Z,19.69
2023-05-20T17:44:46.610Z,19.72
2023-05-20T17:47:13.489Z,19.74
2023-05-20T17:49:40.686Z,19.66
2023-05-20T17:52:07.763Z,19.51
2023-05-20T17:54:34.779Z,19.43
2023-05-20T17:57:01.681Z,19.27
2023-05-20T17:59:28.476Z,19.27
2023-05-20T18:01:55.182Z,19.28
2023-05-20T18:04:22.720Z,19.33
2023-05-20T18:06:49.484Z,19.35
2023-05-20T18:09:16.696Z,19.43
2023-05-20T18:11:43.380Z,19.44
2023-05-20T18:14:10.143Z,19.40
2023-05-20T18:16:36.932Z,19.29
2023-05-20T18:19:03.832Z,19.12
2023-05-20T18:21:30.485Z,18.97
2023-05-20T18:23:57.261Z,18.96
2023-05-20T18:26:24.134Z,18.96
2023-05-20T18:28:51.104Z,18.90
2023-05-20T18:31:17.871Z,18.87
2023-05-20T18:33:44.562Z,18.90
2023-05-20T18:36:11.355Z,18.93
2023-05-20T18:38:40.565Z,18.99
2023-05-20T18:41:08.171Z,18.92
2023-05-20T18:43:34.954Z,18.84
2023-05-20T18:46:01.793Z,18.69
2023-05-20T18:48:28.691Z,18.70
2023-05-20T18:50:56.443Z,18.75
2023-05-20T18:53:23.778Z,18.74
2023-05-20T18:55:50.587Z,18.72
2023-05-20T18:58:17.370Z,18.55
2023-05-20T19:00:44.168Z,18.38
2023-05-20T19:03:11.591Z,18.17
2023-05-20T19:05:38.693Z,18.18
2023-05-20T19:08:05.916Z,18.14
2023-05-20T19:10:33.190Z,18.17
2023-05-20T19:13:00.158Z,18.20
2023-05-20T19:15:26.877Z,18.27
2023-05-20T19:17:53.821Z,18.25
2023-05-20T19:20:20.655Z,18.19
2023-05-20T19:22:47.656Z,18.28
2023-05-20T19:25:14.415Z,18.31
2023-05-20T19:27:41.417Z,18.33
2023-05-20T19:30:10.723Z,18.36
2023-05-20T19:32:38.506Z,18.43
2023-05-20T19:35:06.334Z,18.50
2023-05-20T19:37:33.321Z,18.58
2023-05-20T19:40:00.216Z,18.69
2023-05-20T19:42:26.973Z,18.67
2023-05-20T19:44:54.229Z,18.84
2023-05-20T19:47:21.622Z,18.83
2023-05-20T19:49:48.466Z,18.90
2023-05-20T19:52:15.624Z,18.83
2023-05-20T19:54:43.014Z,18.72
2023-05-20T19:57:10.170Z,18.73
2023-05-20T19:59:38.248Z,18.76
2023-05-20T20:02:06.253Z,18.77
2023-05-20T20:04:33.044Z,18.78
2023-05-20T20:07:00.279Z,18.71
2023-05-20T20:09:27.206Z,18.83
2023-05-20T20:11:54.315Z,18.85
2023-05-20T20:14:21.692Z,18.76
2023-05-20T20:16:49.565Z,18.73
2023-05-20T20:19:18.787Z,18.67
2023-05-20T20:21:46.501Z,18.61
2023-05-20T20:24:13.161Z,18.57
2023-05-20T20:26:39.971Z,18.62
2023-05-20T20:29:07.576Z,18.54
2023-05-20T20:31:34.241Z,18.52
2023-05-20T20:34:01.037Z,18.59
2023-05-20T20:36:31.849Z,18.62
2023-05-20T20:38:59.580Z,18.54
2023-05-20T20:41:26.247Z,18.51
2023-05-20T20:43:53.286Z,18.44
2023-05-20T20:46:20.169Z,18.46
2023-05-20T20:48:47.041Z,18.52
2023-05-20T20:51:15.202Z,18.51
2023-05-20T20:53:42.217Z,18.48
2023-05-20T20:56:10.053Z,18.55
2023-05-20T20:58:40.262Z,18.63
2023-05-20T21:01:07.235Z,18.56
2023-05-20T21:03:40.687Z,18.66
2023-05-20T21:06:08.141Z,18.68
2023-05-20T21:08:34.934Z,18.69
2023-05-20T21:11:01.701Z,18.75
2023-05-20T21:13:31.511Z,18.79
2023-05-20T21:15:58.145Z,18.83
2023-05-20T21:18:24.973Z,18.75
2023-05-20T21:20:53.339Z,18.67
2023-05-20T21:23:21.575Z,18.71
2023-05-20T21:25:48.949Z,18.68
2023-05-20T21:28:16.082Z,18.59
2023-05-20T21:30:42.871Z,18.57
2023-05-20T21:33:09.633Z,18.39
2023-05-20T21:35:36.657Z,18.24
2023-05-20T21:38:03.532Z,18.22
2023-05-20T21:40:30.254Z,18.29
2023-05-20T21:42:57.017Z,18.24
2023-05-20T21:45:23.658Z,18.06
2023-05-20T21:47:50.469Z,18.15
2023-05-20T21:50:17.242Z,18.13
2023-05-20T21:52:43.904Z,18.11
2023-05-20T21:55:10.706Z,18.14
2023-05-20T21:57:37.597Z,18.17
2023-05-20T22:00:11.257Z,18.19
2023-05-20T22:02:38.199Z,18.17
2023-05-20T22:05:05.289Z,18.11
2023-05-20T22:07:33.162Z,18.01
2023-05-20T22:10:00.864Z,17.85
2023-05-20T22:12:27.820Z,17.89
2023-05-20T22:14:54.566Z,17.85
2023-05-20T22:17:21.840Z,17.73
2023-05-20T22:19:48.479Z,17.64
2023-05-20T22:22:15.457Z,17.55
2023-05-20T22:24:42.141Z,17.51
2023-05-20T22:27:08.797Z,17.46
2023-05-20T22:29:35.739Z,17.50
2023-05-20T22:32:02.595Z,17.54
2023-05-20T22:34:29.344Z,17.50
2023-05-20T22:36:55.990Z,17.54
2023-05-20T22:39:22.659Z,17.58
2023-05-20T22:41:49.441Z,17.67
2023-05-20T22:44:16.157Z,17.76
2023-05-20T22:46:42.849Z,17.78
2023-05-20T22:49:10.430Z,17.79
2023-05-20T22:51:38.736Z,17.73
2023-05-20T22:54:06.979Z,17.71
2023-05-20T22:56:34.321Z,17.76
2023-05-20T22:59:01.484Z,17.58
2023-05-20T23:01:28.300Z,17.72
2023-05-20T23:03:55.145Z,17.73
2023-05-20T23:06:22.668Z,17.65
2023-05-20T23:08:49.698Z,17.54
2023-05-20T23:11:16.586Z,17.54
2023-05-20T23:13:43.375Z,17.48
2023-05-20T23:16:10.331Z,17.46
2023-05-20T23:18:37.278Z,17.47
2023-05-20T23:21:04.301Z,17.21
2023-05-20T23:23:32.188Z,17.33
2023-05-20T23:25:59.961Z,17.18
2023-05-20T23:28:26.910Z,17.20
2023-05-20T23:30:54.538Z,17.28
2023-05-20T23:33:25.056Z,17.30
2023-05-20T23:35:52.771Z,17.23
2023-05-20T23:38:19.457Z,17.21
2023-05-20T23:40:46.078Z,17.19
2023-05-20T23:43:12.924Z,17.14
2023-05-20T23:45:39.613Z,17.10
2023-05-20T23:48:09.874Z,16.97
2023-05-20T23:50:36.817Z,17.11
2023-05-20T23:53:03.750Z,17.01
2023-05-20T23:55:30.357Z,16.98
2023-05-20T23:57:56.980Z,16.99
